Time;durP1;ratioP1;P1;durP2;ratioP2;P2;SDS_P1;SDS_P2;PMS_P1;PMS_P2;Temp;Humidity;BMP_temperature;BMP_pressure;BME280_temperature;BME280_humidity;BME280_pressure;Samples;Min_cycle;Max_cycle;Signal;HPM_P1;HPM_P2
2023/06/18 00:01:03;;;;;;;23.50;17.40;;;15.50;99.90;;;;;;5041104;28;20037;-80
2023/06/18 00:03:29;;;;;;;24.63;17.63;;;15.40;99.90;;;;;;5050347;28;20051;-80
2023/06/18 00:05:55;;;;;;;26.63;18.38;;;15.40;99.90;;;;;;5049516;28;20051;-80
2023/06/18 00:08:21;;;;;;;24.55;18.63;;;15.30;99.90;;;;;;5049520;28;20539;-80
2023/06/18 00:10:47;;;;;;;28.02;19.23;;;15.40;99.90;;;;;;5039618;28;20041;-80
2023/06/18 00:13:13;;;;;;;26.05;19.63;;;15.40;99.90;;;;;;5034476;28;20113;-81
2023/06/18 00:15:39;;;;;;;26.73;19.08;;;15.40;99.90;;;;;;5066869;28;20119;-80
2023/06/18 00:18:05;;;;;;;28.60;20.88;;;15.40;99.90;;;;;;5052086;28;20032;-81
2023/06/18 00:20:32;;;;;;;29.90;20.88;;;15.40;99.90;;;;;;5065787;28;20040;-80
2023/06/18 00:22:59;;;;;;;31.42;21.50;;;15.30;99.90;;;;;;5051355;28;20059;-80
2023/06/18 00:25:25;;;;;;;27.08;20.08;;;15.30;99.90;;;;;;5066679;28;20073;-80
2023/06/18 00:27:51;;;;;;;31.50;20.77;;;15.30;99.90;;;;;;5050332;28;20091;-80
2023/06/18 00:30:16;;;;;;;31.05;21.63;;;15.30;99.90;;;;;;5058091;28;20036;-80
2023/06/18 00:32:44;;;;;;;28.33;20.90;;;15.40;99.90;;;;;;5053051;28;20045;-80
2023/06/18 00:35:17;;;;;;;35.42;22.77;;;15.30;99.90;;;;;;5052080;28;20037;-80
2023/06/18 00:37:47;;;;;;;33.60;22.08;;;15.30;99.90;;;;;;5050134;28;20073;-80
2023/06/18 00:40:14;;;;;;;32.28;24.00;;;15.30;99.90;;;;;;5066611;28;20040;-80
2023/06/18 00:42:41;;;;;;;31.15;22.23;;;15.30;99.90;;;;;;5066813;28;20036;-80
2023/06/18 00:45:11;;;;;;;36.60;21.33;;;15.20;99.90;;;;;;5048970;28;20063;-80
2023/06/18 00:47:42;;;;;;;29.85;21.90;;;15.40;99.90;;;;;;5099960;27;20040;-81
2023/06/18 00:50:08;;;;;;;33.65;22.38;;;15.30;99.90;;;;;;5050574;28;20036;-81
2023/06/18 00:52:36;;;;;;;35.20;23.08;;;15.30;99.90;;;;;;5049742;28;20037;-81
2023/06/18 00:55:03;;;;;;;32.35;22.63;;;15.20;99.90;;;;;;5066543;28;20155;-80
2023/06/18 00:57:31;;;;;;;34.38;22.77;;;15.20;99.90;;;;;;5065827;28;20039;-81
2023/06/18 00:59:57;;;;;;;37.00;24.42;;;15.10;99.90;;;;;;5066719;28;20037;-80
2023/06/18 01:02:25;;;;;;;31.60;23.42;;;15.10;99.90;;;;;;5050673;28;20107;-80
2023/06/18 01:04:56;;;;;;;33.55;22.00;;;15.10;99.90;;;;;;5068175;28;20102;-80
2023/06/18 01:07:23;;;;;;;35.20;23.15;;;15.10;99.90;;;;;;5034311;28;20604;-81
2023/06/18 01:09:53;;;;;;;34.15;23.35;;;15.10;99.90;;;;;;5072570;28;20093;-80
2023/06/18 01:12:27;;;;;;;37.05;24.52;;;15.00;99.90;;;;;;5092483;28;20120;-80
2023/06/18 01:14:57;;;;;;;37.15;25.65;;;15.00;99.90;;;;;;5050598;28;20052;-80
2023/06/18 01:17:29;;;;;;;39.15;25.35;;;15.00;99.90;;;;;;5084831;28;20121;-80
2023/06/18 01:20:00;;;;;;;33.47;24.38;;;15.00;99.90;;;;;;5069423;28;20051;-80
2023/06/18 01:22:46;;;;;;;34.60;25.13;;;15.00;99.90;;;;;;5051459;28;20113;-80
2023/06/18 01:25:13;;;;;;;32.10;23.40;;;15.00;99.90;;;;;;5051869;28;20035;-80
2023/06/18 01:27:40;;;;;;;32.92;23.80;;;15.00;99.90;;;;;;5065150;28;20132;-80
2023/06/18 01:30:08;;;;;;;34.00;23.75;;;14.90;99.90;;;;;;5078728;28;20485;-81
2023/06/18 01:32:36;;;;;;;34.88;23.33;;;14.90;99.90;;;;;;5064764;28;20048;-80
2023/06/18 01:35:03;;;;;;;35.55;23.95;;;14.80;99.90;;;;;;5065428;28;20037;-81
2023/06/18 01:38:08;;;;;;;37.63;26.02;;;14.80;99.90;;;;;;5099251;28;20044;-80
2023/06/18 01:40:57;;;;;;;35.67;24.10;;;14.80;99.90;;;;;;5068354;28;20044;-81
2023/06/18 01:43:49;;;;;;;36.72;24.63;;;14.90;99.90;;;;;;5096383;28;20080;-80
2023/06/18 01:46:20;;;;;;;37.65;23.27;;;14.70;99.90;;;;;;5048662;28;20511;-80
2023/06/18 01:49:03;;;;;;;32.93;22.93;;;14.70;99.90;;;;;;5082160;28;20489;-80
2023/06/18 01:51:30;;;;;;;;;;;14.70;99.90;;;;;;5065286;28;20287;-80
2023/06/18 01:53:58;;;;;;;35.50;23.98;;;14.70;99.90;;;;;;5100242;28;20385;-81
2023/06/18 01:56:28;;;;;;;33.22;22.55;;;14.60;99.90;;;;;;5050218;28;20036;-81
2023/06/18 01:58:54;;;;;;;34.85;23.80;;;14.60;99.90;;;;;;5060922;28;20036;-80
2023/06/18 02:01:21;;;;;;;35.25;24.15;;;14.60;99.90;;;;;;5043707;28;20045;-81
2023/06/18 02:03:46;;;;;;;39.55;24.38;;;14.60;99.90;;;;;;5057733;28;20048;-80
2023/06/18 02:06:12;;;;;;;34.08;24.13;;;14.50;99.90;;;;;;5064647;28;20120;-81
2023/06/18 02:08:38;;;;;;;39.45;25.40;;;14.50;99.90;;;;;;5080570;28;20507;-80
2023/06/18 02:11:04;;;;;;;36.63;25.27;;;14.50;99.90;;;;;;5059741;28;20048;-81
2023/06/18 02:13:30;;;;;;;41.05;25.55;;;14.40;99.90;;;;;;5049908;28;20048;-78
2023/06/18 02:15:55;;;;;;;39.63;24.88;;;14.40;99.90;;;;;;5045426;28;20047;-80
2023/06/18 02:18:21;;;;;;;35.15;24.17;;;14.40;99.90;;;;;;5066240;28;20501;-79
2023/06/18 02:20:47;;;;;;;38.25;25.23;;;14.40;99.90;;;;;;5084301;28;20045;-80
2023/06/18 02:23:13;;;;;;;37.67;23.70;;;14.40;99.90;;;;;;5084200;28;20207;-79
2023/06/18 02:25:39;;;;;;;36.20;23.75;;;14.40;99.90;;;;;;5050911;28;20138;-80
2023/06/18 02:28:06;;;;;;;34.05;23.17;;;14.30;99.90;;;;;;5063051;28;20037;-80
2023/06/18 02:30:33;;;;;;;34.50;23.90;;;14.30;99.90;;;;;;5036177;28;20044;-80
2023/06/18 02:33:02;;;;;;;38.70;25.80;;;14.40;99.90;;;;;;5060071;28;20513;-80
2023/06/18 02:35:29;;;;;;;37.63;25.80;;;14.30;99.90;;;;;;5023390;28;20112;-84
2023/06/18 02:37:55;;;;;;;39.63;26.65;;;14.30;99.90;;;;;;5060709;28;20067;-83
2023/06/18 02:40:21;;;;;;;39.90;27.17;;;14.20;99.90;;;;;;5063872;28;20037;-84
2023/06/18 02:42:48;;;;;;;39.55;26.25;;;14.20;99.90;;;;;;5040525;28;20478;-83
2023/06/18 02:45:19;;;;;;;42.88;26.95;;;14.20;99.90;;;;;;5073451;28;20036;-84
2023/06/18 02:47:46;;;;;;;43.43;27.47;;;14.20;99.90;;;;;;5056598;28;20172;-83
2023/06/18 02:50:12;;;;;;;39.45;25.88;;;14.20;99.90;;;;;;5072708;28;20275;-83
2023/06/18 02:52:40;;;;;;;39.65;27.02;;;14.20;99.90;;;;;;5055886;28;20059;-83
2023/06/18 02:55:07;;;;;;;36.80;24.35;;;14.20;99.90;;;;;;5053838;28;20036;-83
2023/06/18 02:57:34;;;;;;;32.25;22.80;;;14.10;99.90;;;;;;5054502;28;20440;-83
2023/06/18 03:00:00;;;;;;;30.55;20.42;;;14.00;99.90;;;;;;5038009;28;20047;-84
2023/06/18 03:02:26;;;;;;;34.10;22.30;;;14.00;99.90;;;;;;5037622;28;20056;-83
2023/06/18 03:04:52;;;;;;;32.35;21.70;;;14.00;99.90;;;;;;5054436;28;20047;-83
2023/06/18 03:07:17;;;;;;;29.60;20.65;;;13.90;99.90;;;;;;5037764;28;20090;-83
2023/06/18 03:09:43;;;;;;;30.88;20.85;;;13.90;99.90;;;;;;5054796;28;20110;-83
2023/06/18 03:12:11;;;;;;;23.13;18.02;;;13.80;99.90;;;;;;5054003;28;20102;-83
2023/06/18 03:14:37;;;;;;;23.05;17.67;;;13.80;99.90;;;;;;5054591;28;20040;-83
2023/06/18 03:17:03;;;;;;;24.17;17.95;;;13.80;99.90;;;;;;5037832;28;20040;-83
2023/06/18 03:19:28;;;;;;;23.95;18.27;;;13.70;99.90;;;;;;5053659;28;20097;-83
2023/06/18 03:21:54;;;;;;;27.55;19.45;;;13.70;99.90;;;;;;5037480;28;20048;-83
2023/06/18 03:24:20;;;;;;;24.38;19.52;;;13.70;99.90;;;;;;5037402;28;20122;-83
2023/06/18 03:26:46;;;;;;;24.30;18.48;;;13.60;99.90;;;;;;5037026;28;20044;-83
2023/06/18 03:29:12;;;;;;;28.50;18.60;;;13.60;99.90;;;;;;5054380;28;20131;-83
2023/06/18 03:31:39;;;;;;;28.55;20.80;;;13.60;99.90;;;;;;5037362;28;20549;-83
2023/06/18 03:34:07;;;;;;;29.27;20.42;;;13.50;99.90;;;;;;5070619;28;20037;-84
2023/06/18 03:36:39;;;;;;;31.52;21.85;;;13.50;99.90;;;;;;5053968;28;20515;-83
2023/06/18 03:39:05;;;;;;;;;;;13.50;99.90;;;;;;5071088;28;20505;-82
2023/06/18 03:41:31;;;;;;;34.88;22.90;;;13.50;99.90;;;;;;5037283;28;20651;-83
2023/06/18 03:43:57;;;;;;;30.20;19.75;;;13.50;99.90;;;;;;5054005;28;20032;-84
2023/06/18 03:46:22;;;;;;;28.48;20.10;;;13.50;99.90;;;;;;5037286;28;20105;-83
2023/06/18 03:48:48;;;;;;;33.78;21.77;;;13.50;99.90;;;;;;5037082;28;20040;-83
2023/06/18 03:51:14;;;;;;;28.73;19.83;;;13.50;99.90;;;;;;5070316;28;20044;-84
2023/06/18 03:53:40;;;;;;;30.90;20.95;;;13.50;99.90;;;;;;5070309;28;20056;-83
2023/06/18 03:56:08;;;;;;;34.67;21.40;;;13.60;99.90;;;;;;5053846;28;20048;-83
2023/06/18 03:58:33;;;;;;;42.67;23.05;;;13.60;99.90;;;;;;5070430;28;20627;-83
2023/06/18 04:00:59;;;;;;;35.33;22.23;;;13.60;99.90;;;;;;5053528;28;20127;-83
2023/06/18 04:03:25;;;;;;;41.58;24.35;;;13.60;99.90;;;;;;5036875;28;20097;-83
2023/06/18 04:05:51;;;;;;;37.85;22.85;;;13.60;99.90;;;;;;5053451;28;20036;-83
2023/06/18 04:08:16;;;;;;;38.97;22.77;;;13.70;99.90;;;;;;5053674;28;20032;-83
2023/06/18 04:10:43;;;;;;;34.38;22.33;;;13.70;99.90;;;;;;5053519;28;20611;-84
2023/06/18 04:13:15;;;;;;;36.92;21.23;;;13.70;99.90;;;;;;5036891;28;20043;-83
2023/06/18 04:15:41;;;;;;;36.55;21.25;;;13.70;99.90;;;;;;5037002;28;20478;-84
2023/06/18 04:18:07;;;;;;;33.70;21.73;;;13.70;99.90;;;;;;5036916;28;20546;-83
2023/06/18 04:20:33;;;;;;;37.17;22.80;;;13.70;99.90;;;;;;5037481;28;20040;-84
2023/06/18 04:22:59;;;;;;;34.95;22.08;;;13.70;99.90;;;;;;5036733;28;20494;-83
2023/06/18 04:25:24;;;;;;;32.90;22.75;;;13.80;99.90;;;;;;5053719;28;20036;-84
2023/06/18 04:27:50;;;;;;;33.20;22.13;;;13.80;99.90;;;;;;5053372;28;20068;-85
2023/06/18 04:30:16;;;;;;;33.60;22.83;;;13.80;99.90;;;;;;5053178;28;20071;-85
2023/06/18 04:32:41;;;;;;;40.25;24.33;;;13.90;99.90;;;;;;5053398;28;20107;-85
2023/06/18 04:35:07;;;;;;;35.78;23.67;;;13.90;99.90;;;;;;5053516;28;20090;-84
2023/06/18 04:37:33;;;;;;;37.53;23.95;;;13.90;99.90;;;;;;5036550;28;20044;-84
2023/06/18 04:39:59;;;;;;;39.10;23.73;;;14.00;99.90;;;;;;5053044;28;20050;-84
2023/06/18 04:42:25;;;;;;;39.83;25.05;;;14.00;99.90;;;;;;5036346;28;20127;-84
2023/06/18 04:44:50;;;;;;;38.38;23.98;;;14.00;99.90;;;;;;5053294;28;20439;-85
2023/06/18 04:47:16;;;;;;;37.15;25.13;;;14.10;99.90;;;;;;5053038;28;20470;-83
2023/06/18 04:49:43;;;;;;;38.30;25.50;;;14.10;99.90;;;;;;5036138;28;20049;-84
2023/06/18 04:52:10;;;;;;;39.75;25.20;;;14.20;99.90;;;;;;5052907;28;20121;-84
2023/06/18 04:54:36;;;;;;;40.53;25.52;;;14.20;99.90;;;;;;5036298;28;20044;-83
2023/06/18 04:57:01;;;;;;;42.08;26.75;;;14.20;99.90;;;;;;5036402;28;20374;-83
2023/06/18 04:59:27;;;;;;;38.67;25.95;;;14.20;99.90;;;;;;5052456;28;20438;-84
2023/06/18 05:01:54;;;;;;;42.90;26.90;;;14.20;99.90;;;;;;5035861;28;20045;-84
2023/06/18 05:04:19;;;;;;;35.42;24.50;;;14.20;99.90;;;;;;5069145;28;20060;-83
2023/06/18 05:06:45;;;;;;;41.15;25.95;;;14.30;99.90;;;;;;5069413;28;20040;-83
2023/06/18 05:09:11;;;;;;;43.05;28.55;;;14.30;99.90;;;;;;5052560;28;20669;-84
2023/06/18 05:11:36;;;;;;;42.22;27.02;;;14.40;99.90;;;;;;5052348;28;20067;-84
2023/06/18 05:14:05;;;;;;;46.20;27.48;;;14.40;99.90;;;;;;5052727;28;20087;-83
2023/06/18 05:16:31;;;;;;;42.78;27.10;;;14.40;99.90;;;;;;5036365;28;20044;-83
2023/06/18 05:18:57;;;;;;;45.88;29.77;;;14.50;99.90;;;;;;5052361;28;20036;-83
2023/06/18 05:21:22;;;;;;;50.97;29.83;;;14.50;99.90;;;;;;5052432;28;20041;-83
2023/06/18 05:23:48;;;;;;;42.08;27.45;;;14.50;99.90;;;;;;5035650;28;20127;-84
2023/06/18 05:26:14;;;;;;;45.47;27.42;;;14.60;99.90;;;;;;5035965;28;20048;-83
2023/06/18 05:28:40;;;;;;;43.67;28.63;;;14.70;99.90;;;;;;5052666;28;20033;-83
2023/06/18 05:31:05;;;;;;;48.30;29.23;;;14.80;99.90;;;;;;5036147;28;20476;-83
2023/06/18 05:33:31;;;;;;;49.40;28.77;;;14.80;99.90;;;;;;5068918;28;20409;-83
2023/06/18 05:35:57;;;;;;;42.63;28.75;;;14.90;99.90;;;;;;5069223;28;20051;-83
2023/06/18 05:38:22;;;;;;;47.78;30.30;;;15.00;99.90;;;;;;5052458;28;20048;-83
2023/06/18 05:40:48;;;;;;;46.10;29.45;;;15.10;99.90;;;;;;5035841;28;20053;-84
2023/06/18 05:43:14;;;;;;;49.42;28.70;;;15.20;99.90;;;;;;5038549;28;20141;-84
2023/06/18 05:45:40;;;;;;;47.45;29.65;;;15.20;99.90;;;;;;5039820;28;20036;-84
2023/06/18 05:48:08;;;;;;;44.33;29.63;;;15.30;99.90;;;;;;5039674;28;20716;-84
2023/06/18 05:50:33;;;;;;;45.92;29.60;;;15.40;99.90;;;;;;5055808;28;20032;-84
2023/06/18 05:52:59;;;;;;;51.17;30.27;;;15.50;99.90;;;;;;5056157;28;20051;-84
2023/06/18 05:55:25;;;;;;;43.95;29.58;;;15.60;99.90;;;;;;5055822;28;20079;-84
2023/06/18 05:57:51;;;;;;;51.08;29.20;;;15.70;99.90;;;;;;5056021;28;20129;-84
2023/06/18 06:00:17;;;;;;;48.63;29.25;;;15.80;99.90;;;;;;5072356;28;20048;-84
2023/06/18 06:02:43;;;;;;;43.55;28.30;;;15.90;99.90;;;;;;5072209;28;20044;-84
2023/06/18 06:05:09;;;;;;;45.55;30.33;;;16.00;99.90;;;;;;5072286;28;20043;-84
2023/06/18 06:07:35;;;;;;;53.22;31.92;;;16.10;99.90;;;;;;5039516;28;20055;-84
2023/06/18 06:10:01;;;;;;;51.03;30.13;;;16.20;99.90;;;;;;5055641;28;20070;-84
2023/06/18 06:12:26;;;;;;;43.65;28.08;;;16.40;99.90;;;;;;5055544;28;20044;-84
2023/06/18 06:14:52;;;;;;;46.53;29.10;;;16.50;99.90;;;;;;5055542;28;20040;-84
2023/06/18 06:17:18;;;;;;;43.60;27.77;;;16.60;99.90;;;;;;5055661;28;20045;-84
2023/06/18 06:19:43;;;;;;;41.15;28.50;;;16.70;99.90;;;;;;5055265;28;20048;-84
2023/06/18 06:22:09;;;;;;;40.65;27.05;;;16.80;99.90;;;;;;5055338;28;20037;-84
2023/06/18 06:24:35;;;;;;;39.95;27.70;;;16.90;99.90;;;;;;5055476;28;20102;-83
2023/06/18 06:27:00;;;;;;;41.60;27.85;;;17.10;99.90;;;;;;5055596;28;20063;-84
2023/06/18 06:29:26;;;;;;;42.83;28.30;;;17.20;99.90;;;;;;5055288;28;20071;-84
2023/06/18 06:31:52;;;;;;;43.65;26.77;;;17.30;99.90;;;;;;5055487;28;20040;-84
2023/06/18 06:34:19;;;;;;;40.63;26.90;;;17.40;99.90;;;;;;5055432;28;20040;-84
2023/06/18 06:36:45;;;;;;;37.08;25.25;;;17.50;99.90;;;;;;5055543;28;20413;-84
2023/06/18 06:39:11;;;;;;;37.92;26.10;;;17.70;99.90;;;;;;5055052;28;20040;-84
2023/06/18 06:41:37;;;;;;;36.65;25.33;;;17.80;99.90;;;;;;5054942;28;20056;-82
2023/06/18 06:44:03;;;;;;;40.80;26.70;;;18.00;99.90;;;;;;5038416;28;20044;-82
2023/06/18 06:46:28;;;;;;;36.30;25.90;;;18.10;99.90;;;;;;5038523;28;20033;-82
2023/06/18 06:48:54;;;;;;;36.15;26.95;;;18.20;99.90;;;;;;5055075;28;20731;-82
2023/06/18 06:51:20;;;;;;;34.78;23.83;;;18.30;99.90;;;;;;5071524;28;20076;-82
2023/06/18 06:53:45;;;;;;;33.17;22.70;;;18.40;99.90;;;;;;5054342;28;20088;-82
2023/06/18 06:56:11;;;;;;;30.15;21.88;;;18.50;99.90;;;;;;5038208;28;20557;-82
2023/06/18 06:58:37;;;;;;;33.10;22.90;;;18.70;99.90;;;;;;5038647;28;20040;-82
2023/06/18 07:01:02;;;;;;;32.20;22.60;;;18.80;99.90;;;;;;5038006;28;20491;-82
2023/06/18 07:03:28;;;;;;;32.15;22.42;;;18.90;99.90;;;;;;5071493;28;20048;-82
2023/06/18 07:05:55;;;;;;;31.58;22.60;;;19.00;99.90;;;;;;5054698;28;20072;-82
2023/06/18 07:08:21;;;;;;;33.75;22.08;;;19.20;99.90;;;;;;5054807;28;20137;-81
2023/06/18 07:10:46;;;;;;;31.13;21.15;;;19.40;99.90;;;;;;5037839;28;20093;-81
2023/06/18 07:13:13;;;;;;;28.42;21.42;;;19.60;99.90;;;;;;5070913;28;20045;-81
2023/06/18 07:15:38;;;;;;;27.27;18.73;;;19.80;99.90;;;;;;5054452;28;20040;-82
2023/06/18 07:18:04;;;;;;;28.30;19.88;;;20.00;99.90;;;;;;5037832;28;20040;-82
2023/06/18 07:20:30;;;;;;;25.95;20.35;;;20.20;99.90;;;;;;5054540;28;20040;-82
2023/06/18 07:22:55;;;;;;;32.25;20.00;;;20.40;99.90;;;;;;5054193;28;20059;-82
2023/06/18 07:25:21;;;;;;;24.80;19.17;;;20.60;99.90;;;;;;5070960;28;20036;-82
2023/06/18 07:27:47;;;;;;;26.42;18.52;;;20.70;99.90;;;;;;5037628;28;20068;-82
2023/06/18 07:30:13;;;;;;;23.42;17.00;;;21.00;99.90;;;;;;5054671;28;20044;-82
2023/06/18 07:32:40;;;;;;;24.85;17.73;;;21.20;99.90;;;;;;5054569;28;20051;-82
2023/06/18 07:35:07;;;;;;;23.42;17.70;;;21.30;99.90;;;;;;5070850;28;20048;-82
2023/06/18 07:37:33;;;;;;;23.40;18.05;;;21.50;99.90;;;;;;5070839;28;20040;-82
2023/06/18 07:39:59;;;;;;;26.52;18.35;;;21.60;99.90;;;;;;5054456;28;20048;-82
2023/06/18 07:42:25;;;;;;;25.30;17.63;;;21.70;99.90;;;;;;5053916;28;20417;-82
2023/06/18 07:44:52;;;;;;;24.52;17.95;;;21.90;99.90;;;;;;5054004;28;20036;-82
2023/06/18 07:47:18;;;;;;;22.83;16.65;;;22.10;99.90;;;;;;5037912;28;20539;-82
2023/06/18 07:49:43;;;;;;;20.90;17.45;;;22.30;99.90;;;;;;5053881;28;20075;-82
2023/06/18 07:52:09;;;;;;;19.10;15.40;;;22.40;99.90;;;;;;5053805;28;20119;-82
2023/06/18 07:54:35;;;;;;;20.10;15.57;;;22.60;99.90;;;;;;5053900;28;20079;-82
2023/06/18 07:57:02;;;;;;;21.92;16.23;;;22.70;99.90;;;;;;5053692;28;20117;-82
2023/06/18 07:59:27;;;;;;;22.85;14.77;;;22.80;99.90;;;;;;5070792;28;20052;-82
2023/06/18 08:01:53;;;;;;;23.20;15.05;;;22.90;99.90;;;;;;5053557;28;20552;-82
2023/06/18 08:04:19;;;;;;;20.55;14.55;;;23.00;99.90;;;;;;5070335;28;20486;-82
2023/06/18 08:06:48;;;;;;;20.83;15.10;;;23.20;99.90;;;;;;5070215;28;20044;-82
2023/06/18 08:09:14;;;;;;;19.23;14.32;;;23.30;99.90;;;;;;5053983;28;20051;-82
2023/06/18 08:11:41;;;;;;;17.77;14.88;;;23.40;99.90;;;;;;5053543;28;20691;-82
2023/06/18 08:14:07;;;;;;;19.10;13.98;;;23.60;99.90;;;;;;5037104;28;20050;-81
2023/06/18 08:16:33;;;;;;;17.58;13.93;;;23.70;99.90;;;;;;5070267;28;20048;-82
2023/06/18 08:18:58;;;;;;;20.05;14.70;;;23.90;99.90;;;;;;5070077;28;20502;-82
2023/06/18 08:21:24;;;;;;;16.80;13.43;;;24.00;99.90;;;;;;5070139;28;20127;-82
2023/06/18 08:23:51;;;;;;;18.13;14.32;;;24.10;99.90;;;;;;5053290;28;20047;-82
2023/06/18 08:26:19;;;;;;;15.45;13.45;;;24.20;99.90;;;;;;5053437;28;20067;-82
2023/06/18 08:28:45;;;;;;;17.25;13.23;;;24.30;99.90;;;;;;5053159;28;20036;-82
2023/06/18 08:31:10;;;;;;;15.70;11.38;;;24.40;99.90;;;;;;5053356;28;20033;-82
2023/06/18 08:33:36;;;;;;;13.65;10.65;;;24.60;99.90;;;;;;5036709;28;20089;-82
2023/06/18 08:36:02;;;;;;;17.00;10.82;;;24.70;99.90;;;;;;5036921;28;20028;-82
2023/06/18 08:38:27;;;;;;;17.95;10.82;;;24.90;99.90;;;;;;5036360;28;20120;-82
2023/06/18 08:41:01;;;;;;;18.40;11.10;;;25.00;99.90;;;;;;5069544;28;20098;-82
2023/06/18 08:43:32;;;;;;;13.23;9.75;;;25.20;99.90;;;;;;5054136;28;20087;-82
2023/06/18 08:46:12;;;;;;;13.88;11.02;;;25.40;99.90;;;;;;5069479;28;20174;-82
2023/06/18 08:48:56;;;;;;;14.77;9.85;;;25.50;99.60;;;;;;5052890;28;20037;-82
2023/06/18 08:51:23;;;;;;;17.35;8.07;;;25.60;97.30;;;;;;5052943;28;20440;-82
2023/06/18 08:54:08;;;;;;;11.20;7.72;;;25.80;97.00;;;;;;5069218;28;20044;-82
2023/06/18 08:56:42;;;;;;;9.98;7.88;;;25.80;94.90;;;;;;5069578;28;20661;-82
2023/06/18 08:59:08;;;;;;;16.45;8.60;;;25.90;94.10;;;;;;5069710;28;20036;-82
2023/06/18 09:01:35;;;;;;;12.18;8.13;;;26.00;93.70;;;;;;5069409;28;20037;-82
2023/06/18 09:04:02;;;;;;;9.48;7.63;;;26.10;93.40;;;;;;5052500;28;20083;-82
2023/06/18 09:06:29;;;;;;;8.48;6.88;;;26.20;92.30;;;;;;5052989;28;20552;-82
2023/06/18 09:08:57;;;;;;;12.15;6.82;;;26.30;90.70;;;;;;5052525;28;20043;-82
2023/06/18 09:11:23;;;;;;;10.32;7.40;;;26.40;90.10;;;;;;5052573;28;20060;-82
2023/06/18 09:13:49;;;;;;;20.20;8.23;;;26.60;89.40;;;;;;5069426;28;20670;-82
2023/06/18 09:16:15;;;;;;;22.70;8.60;;;26.70;88.80;;;;;;5052088;28;20043;-82
2023/06/18 09:18:41;;;;;;;9.70;7.13;;;26.80;88.80;;;;;;5052558;28;20102;-81
2023/06/18 09:21:07;;;;;;;11.15;7.10;;;26.90;86.40;;;;;;5052688;28;20040;-81
2023/06/18 09:23:33;;;;;;;8.45;6.63;;;26.90;83.50;;;;;;5052771;28;20087;-81
2023/06/18 09:26:00;;;;;;;11.07;7.35;;;27.00;81.00;;;;;;5052633;28;20036;-81
2023/06/18 09:28:27;;;;;;;7.50;6.57;;;27.20;80.90;;;;;;5069489;28;20040;-81
2023/06/18 09:31:03;;;;;;;7.47;6.55;;;27.30;79.60;;;;;;5069356;28;20535;-81
2023/06/18 09:33:34;;;;;;;7.53;6.57;;;27.30;77.50;;;;;;5036085;28;20054;-81
2023/06/18 09:36:08;;;;;;;9.03;6.03;;;27.50;77.30;;;;;;5052646;28;20044;-81
2023/06/18 09:38:39;;;;;;;13.52;6.57;;;27.60;76.90;;;;;;5052438;28;20044;-81
2023/06/18 09:41:20;;;;;;;7.35;6.03;;;27.80;75.80;;;;;;5052112;28;20043;-81
2023/06/18 09:43:51;;;;;;;7.22;6.13;;;27.90;72.80;;;;;;5052502;28;20163;-81
2023/06/18 09:46:18;;;;;;;9.57;6.25;;;28.00;74.00;;;;;;5052403;28;20123;-81
2023/06/18 09:48:46;;;;;;;7.03;6.32;;;28.00;73.00;;;;;;5036100;28;20134;-81
2023/06/18 09:51:14;;;;;;;7.70;6.38;;;28.10;72.00;;;;;;5035690;28;20089;-81
2023/06/18 09:53:40;;;;;;;8.93;6.45;;;28.10;70.60;;;;;;5052283;28;20039;-81
2023/06/18 09:56:14;;;;;;;21.15;6.60;;;28.20;70.70;;;;;;5068791;28;20124;-81
2023/06/18 09:58:45;;;;;;;8.70;6.50;;;28.30;70.60;;;;;;5068987;28;20033;-82
2023/06/18 10:01:12;;;;;;;13.20;6.18;;;28.40;69.90;;;;;;5069058;28;20077;-81
2023/06/18 10:03:38;;;;;;;6.85;6.07;;;28.50;69.80;;;;;;5053086;28;20398;-81
2023/06/18 10:06:21;;;;;;;8.93;6.45;;;28.70;70.00;;;;;;5053279;28;20097;-81
2023/06/18 10:08:52;;;;;;;8.30;7.15;;;28.80;68.60;;;;;;5052344;28;20033;-81
2023/06/18 10:11:19;;;;;;;10.18;6.10;;;28.80;68.50;;;;;;5052405;28;20048;-81
2023/06/18 10:13:50;;;;;;;8.82;6.53;;;28.90;68.90;;;;;;5036086;28;20040;-81
2023/06/18 10:16:18;;;;;;;12.50;6.40;;;29.00;68.00;;;;;;5053278;28;20087;-81
2023/06/18 10:18:52;;;;;;;7.30;6.28;;;29.10;67.40;;;;;;5069553;28;20044;-81
2023/06/18 10:21:20;;;;;;;19.00;7.45;;;29.00;66.80;;;;;;5069400;28;20047;-81
2023/06/18 10:23:49;;;;;;;8.10;6.70;;;29.00;66.80;;;;;;5069673;28;20135;-82
2023/06/18 10:26:16;;;;;;;7.10;6.40;;;28.90;67.00;;;;;;5069261;28;20111;-82
2023/06/18 10:28:42;;;;;;;7.25;6.53;;;28.90;67.10;;;;;;5036806;28;20032;-81
2023/06/18 10:31:08;;;;;;;9.15;6.45;;;29.10;67.20;;;;;;5072931;28;20040;-81
2023/06/18 10:33:34;;;;;;;6.53;5.93;;;29.10;67.50;;;;;;5056378;28;20047;-82
2023/06/18 10:36:01;;;;;;;6.68;6.07;;;29.20;66.60;;;;;;5057317;28;20040;-81
2023/06/18 10:38:28;;;;;;;10.05;6.35;;;29.20;66.10;;;;;;5061620;28;20048;-81
2023/06/18 10:41:17;;;;;;;8.75;6.80;;;29.30;66.40;;;;;;5040723;28;20056;-81
2023/06/18 10:43:42;;;;;;;7.93;6.10;;;29.30;65.50;;;;;;5056910;28;20047;-81
2023/06/18 10:46:13;;;;;;;8.73;5.80;;;29.30;66.40;;;;;;5072977;28;20119;-81
2023/06/18 10:48:40;;;;;;;8.50;6.10;;;29.60;66.10;;;;;;5056356;28;20086;-82
2023/06/18 10:51:17;;;;;;;7.18;5.28;;;29.60;64.40;;;;;;5039901;28;20044;-82
2023/06/18 10:53:46;;;;;;;6.38;5.15;;;29.70;62.40;;;;;;5056408;28;20083;-83
2023/06/18 10:56:16;;;;;;;11.50;6.63;;;29.70;63.20;;;;;;5073746;28;20611;-82
2023/06/18 10:58:42;;;;;;;10.65;6.28;;;29.60;61.50;;;;;;5056336;28;20047;-82
2023/06/18 11:01:24;;;;;;;7.38;5.50;;;29.40;61.80;;;;;;5074896;28;20136;-82
2023/06/18 11:04:01;;;;;;;5.50;4.82;;;29.40;61.40;;;;;;5072999;28;20103;-83
2023/06/18 11:06:31;;;;;;;7.30;5.30;;;29.30;60.40;;;;;;5056011;28;20040;-82
2023/06/18 11:08:57;;;;;;;6.20;5.55;;;29.40;59.70;;;;;;5072290;28;20600;-82
2023/06/18 11:11:25;;;;;;;8.48;6.10;;;29.40;61.40;;;;;;5055531;28;20044;-82
2023/06/18 11:13:53;;;;;;;6.90;5.93;;;29.40;61.30;;;;;;5039617;28;20076;-82
2023/06/18 11:16:20;;;;;;;7.57;5.90;;;29.40;61.00;;;;;;5072380;28;20048;-81
2023/06/18 11:18:46;;;;;;;9.90;6.05;;;29.50;61.70;;;;;;5071792;28;20097;-82
2023/06/18 11:21:17;;;;;;;8.10;5.72;;;29.40;62.20;;;;;;5038655;28;20124;-82
2023/06/18 11:23:43;;;;;;;7.10;6.38;;;29.30;61.90;;;;;;5071727;28;20043;-82
2023/06/18 11:26:16;;;;;;;7.70;5.90;;;29.10;62.60;;;;;;5039164;28;20075;-82
2023/06/18 11:28:42;;;;;;;8.35;6.00;;;29.10;63.10;;;;;;5055052;28;20524;-82
2023/06/18 11:31:08;;;;;;;6.60;5.90;;;29.00;63.40;;;;;;5072030;28;20389;-82
2023/06/18 11:33:34;;;;;;;7.55;6.68;;;28.90;62.80;;;;;;5055654;28;20033;-82
2023/06/18 11:36:07;;;;;;;8.20;6.50;;;29.00;63.70;;;;;;5072105;28;20506;-82
2023/06/18 11:38:33;;;;;;;7.63;6.28;;;29.00;62.80;;;;;;5055423;28;20058;-82
2023/06/18 11:40:59;;;;;;;9.75;6.65;;;28.80;62.10;;;;;;5037171;28;20478;-82
2023/06/18 11:43:25;;;;;;;6.97;6.28;;;28.80;63.20;;;;;;5054769;28;20044;-81
2023/06/18 11:45:53;;;;;;;11.85;6.80;;;28.80;63.30;;;;;;5071302;28;20037;-82
2023/06/18 11:48:22;;;;;;;8.15;6.80;;;28.90;63.60;;;;;;5055118;28;20029;-81
2023/06/18 11:50:55;;;;;;;8.85;6.72;;;28.90;63.60;;;;;;5072280;28;20537;-81
2023/06/18 11:53:21;;;;;;;10.02;7.10;;;28.90;63.60;;;;;;5054801;28;20079;-82
2023/06/18 11:55:47;;;;;;;11.70;6.85;;;29.00;63.70;;;;;;5054420;28;20047;-82
2023/06/18 11:58:15;;;;;;;10.00;6.68;;;29.00;63.70;;;;;;5054518;28;20040;-83
2023/06/18 12:00:41;;;;;;;8.32;6.22;;;29.10;63.70;;;;;;5070635;28;20042;-82
2023/06/18 12:03:07;;;;;;;11.40;6.63;;;29.10;63.60;;;;;;5037536;28;20052;-81
2023/06/18 12:05:37;;;;;;;13.10;6.95;;;29.30;64.10;;;;;;5053339;28;20045;-81
2023/06/18 12:08:10;;;;;;;12.23;7.07;;;29.30;64.10;;;;;;5053702;28;20039;-81
2023/06/18 12:10:38;;;;;;;10.35;6.53;;;29.50;63.30;;;;;;5053091;28;20594;-82
2023/06/18 12:13:16;;;;;;;7.90;6.50;;;29.60;63.60;;;;;;5036598;28;20123;-81
2023/06/18 12:16:04;;;;;;;8.13;6.90;;;29.70;64.40;;;;;;5053022;28;20051;-82
2023/06/18 12:18:43;;;;;;;7.93;6.45;;;29.90;63.90;;;;;;5053372;28;20047;-82
2023/06/18 12:21:09;;;;;;;7.35;6.38;;;30.00;61.80;;;;;;5036162;28;20037;-81
2023/06/18 12:23:38;;;;;;;7.75;6.32;;;29.90;62.30;;;;;;5070068;28;20506;-81
2023/06/18 12:26:04;;;;;;;7.95;6.47;;;29.70;62.80;;;;;;5036512;28;20055;-82
2023/06/18 12:28:33;;;;;;;9.10;6.78;;;29.60;62.60;;;;;;5036529;28;20046;-81
2023/06/18 12:31:09;;;;;;;8.93;7.10;;;29.60;63.20;;;;;;5053190;28;20041;-82
2023/06/18 12:33:41;;;;;;;9.13;6.85;;;29.60;62.20;;;;;;5069754;28;20067;-81
2023/06/18 12:36:06;;;;;;;11.48;7.15;;;29.40;62.70;;;;;;5036491;28;20124;-81